Time;durP1;ratioP1;P1;durP2;ratioP2;P2;SDS_P1;SDS_P2;PMS_P1;PMS_P2;Temp;Humidity;BMP_temperature;BMP_pressure;BME280_temperature;BME280_humidity;BME280_pressure;Samples;Min_cycle;Max_cycle;Signal;HPM_P1;HPM_P2
2021/12/13 00:00:29;;;;;;;28.13;17.10;;;;;;;;;;4774992;30;20127;-88
2021/12/13 00:02:55;;;;;;;28.77;16.83;;;;;;;;;;4850473;29;20048;-88
2021/12/13 00:05:23;;;;;;;25.92;16.08;;;;;;;;;;4850152;29;20042;-87
2021/12/13 00:07:58;;;;;;;26.23;16.60;;;;;;;;;;4850320;29;20373;-87
2021/12/13 00:10:30;;;;;;;24.85;15.93;;;;;;;;;;4865810;29;20053;-87
2021/12/13 00:13:02;;;;;;;26.92;15.57;;;;;;;;;;4849691;29;20085;-87
2021/12/13 00:15:32;;;;;;;28.55;16.67;;;;;;;;;;4865109;29;20071;-86
2021/12/13 00:17:59;;;;;;;26.98;15.82;;;;;;;;;;4865495;29;20034;-87
2021/12/13 00:20:36;;;;;;;26.25;15.60;;;;;;;;;;4849745;29;20037;-86
2021/12/13 00:23:05;;;;;;;23.02;15.55;;;;;;;;;;4849563;29;20034;-87
2021/12/13 00:25:31;;;;;;;27.90;15.88;;;;;;;;;;4849975;29;20034;-87
2021/12/13 00:28:10;;;;;;;23.92;15.35;;;;;;;;;;4849245;29;20042;-87
2021/12/13 00:30:36;;;;;;;26.30;15.85;;;;;;;;;;4865402;29;20034;-87
2021/12/13 00:33:15;;;;;;;26.52;15.90;;;;;;;;;;4865608;29;20435;-87
2021/12/13 00:35:49;;;;;;;25.42;15.88;;;;;;;;;;4922950;29;20111;-87
2021/12/13 00:38:16;;;;;;;25.48;14.65;;;;;;;;;;4922896;29;20047;-87
2021/12/13 00:40:47;;;;;;;26.05;14.98;;;;;;;;;;4923147;29;20028;-88
2021/12/13 00:43:20;;;;;;;27.65;15.13;;;;;;;;;;4923210;29;20036;-87
2021/12/13 00:46:15;;;;;;;28.48;17.05;;;;;;;;;;4923082;29;20032;-88
2021/12/13 00:48:44;;;;;;;26.50;14.85;;;;;;;;;;4828352;29;20035;-87
2021/12/13 00:51:12;;;;;;;24.70;14.00;;;;;;;;;;4828227;29;20486;-86
2021/12/13 00:53:41;;;;;;;26.02;14.98;;;;;;;;;;4828390;29;20066;-87
2021/12/13 00:56:26;;;;;;;24.10;14.55;;;;;;;;;;4828488;29;20038;-87
2021/12/13 00:58:56;;;;;;;25.52;14.48;;;;;;;;;;4828319;29;20058;-88
2021/12/13 01:01:23;;;;;;;24.33;15.55;;;;;;;;;;4828101;29;20031;-88
2021/12/13 01:03:50;;;;;;;27.13;15.68;;;;;;;;;;4828298;29;20026;-87
2021/12/13 01:12:24;;;;;;;25.88;14.77;;;;;;;;;;4828006;29;20049;-88
2021/12/13 01:14:56;;;;;;;26.33;14.82;;;;;;;;;;4827796;29;20031;-88
2021/12/13 01:17:45;;;;;;;30.70;17.67;;;;;;;;;;4828082;29;20041;-88
2021/12/13 01:20:18;;;;;;;24.50;15.10;;;;;;;;;;4828134;29;20458;-87
2021/12/13 01:28:31;;;;;;;24.92;15.25;;;;;;;;;;4922459;29;20043;-88
2021/12/13 01:34:01;;;;;;;27.00;16.35;;;;;;;;;;4922213;29;20039;-89
2021/12/13 01:36:44;;;;;;;27.75;16.15;;;;;;;;;;4905368;29;20088;-88
2021/12/13 01:39:29;;;;;;;25.98;15.15;;;;;;;;;;4922149;29;20021;-87
2021/12/13 01:42:00;;;;;;;27.35;17.50;;;;;;;;;;4921467;29;20316;-87
2021/12/13 01:44:29;;;;;;;25.38;15.18;;;;;;;;;;4922187;29;20324;-89
2021/12/13 01:47:01;;;;;;;26.30;15.95;;;;;;;;;;4921950;29;20430;-88
2021/12/13 01:49:33;;;;;;;30.17;17.85;;;;;;;;;;4921688;29;20051;-88
2021/12/13 01:52:00;;;;;;;28.77;16.50;;;;;;;;;;4921717;29;20403;-87
2021/12/13 01:54:26;;;;;;;25.88;16.35;;;;;;;;;;4921995;29;20100;-87
2021/12/13 02:00:08;;;;;;;24.23;15.50;;;;;;;;;;4922189;29;20453;-87
2021/12/13 02:02:33;;;;;;;27.92;16.63;;;;;;;;;;4920933;29;20122;-86
2021/12/13 02:05:05;;;;;;;27.88;16.35;;;;;;;;;;4921380;29;20028;-86
2021/12/13 02:10:36;;;;;;;32.00;16.15;;;;;;;;;;4921449;29;20043;-86
2021/12/13 02:13:14;;;;;;;27.35;16.25;;;;;;;;;;4921182;29;20056;-87
2021/12/13 02:18:31;;;;;;;28.67;16.55;;;;;;;;;;4921825;29;20449;-89
2021/12/13 02:21:05;;;;;;;29.77;16.35;;;;;;;;;;4921214;29;20027;-87
2021/12/13 02:23:32;;;;;;;27.80;16.48;;;;;;;;;;4921349;29;20082;-88
2021/12/13 02:25:58;;;;;;;28.23;16.67;;;;;;;;;;4921335;29;20036;-88
2021/12/13 02:28:27;;;;;;;27.65;15.82;;;;;;;;;;4921331;29;20450;-88
2021/12/13 02:30:56;;;;;;;27.25;15.18;;;;;;;;;;4921353;29;20036;-87
2021/12/13 02:33:28;;;;;;;28.17;16.80;;;;;;;;;;4904329;29;20338;-89
2021/12/13 02:36:02;;;;;;;30.92;17.00;;;;;;;;;;4921180;29;20031;-88
2021/12/13 02:38:28;;;;;;;28.95;16.88;;;;;;;;;;4921487;29;20043;-88
2021/12/13 02:40:55;;;;;;;28.35;16.67;;;;;;;;;;4921301;29;20028;-89
2021/12/13 02:43:26;;;;;;;33.05;17.70;;;;;;;;;;4904615;29;20030;-88
2021/12/13 02:45:53;;;;;;;30.02;17.80;;;;;;;;;;4921007;29;20076;-87
2021/12/13 02:48:22;;;;;;;29.08;16.77;;;;;;;;;;4921055;29;20036;-87
2021/12/13 02:50:51;;;;;;;31.02;17.67;;;;;;;;;;4921043;29;20024;-87
2021/12/13 02:53:20;;;;;;;28.20;17.02;;;;;;;;;;4924599;29;20032;-87
2021/12/13 02:55:46;;;;;;;31.02;18.48;;;;;;;;;;4908186;29;20450;-86
2021/12/13 02:58:15;;;;;;;28.08;16.80;;;;;;;;;;4908048;29;20028;-86
2021/12/13 03:00:57;;;;;;;28.45;16.80;;;;;;;;;;4924686;29;20032;-87
2021/12/13 03:03:26;;;;;;;30.80;17.40;;;;;;;;;;4924648;29;20419;-87
2021/12/13 03:05:53;;;;;;;30.60;17.15;;;;;;;;;;4925036;29;20032;-88
2021/12/13 03:08:22;;;;;;;28.55;16.85;;;;;;;;;;4924746;29;20024;-88
2021/12/13 03:10:51;;;;;;;27.20;16.98;;;;;;;;;;4924445;29;20036;-86
2021/12/13 03:13:19;;;;;;;28.92;17.52;;;;;;;;;;4907887;29;20036;-87
2021/12/13 03:15:47;;;;;;;29.45;16.75;;;;;;;;;;4924459;29;20323;-86
2021/12/13 03:18:18;;;;;;;31.73;17.58;;;;;;;;;;4924559;29;20032;-87
2021/12/13 03:20:44;;;;;;;29.05;17.45;;;;;;;;;;4924575;29;20035;-87
2021/12/13 03:23:17;;;;;;;35.80;19.35;;;;;;;;;;4924301;29;20024;-87
2021/12/13 03:25:53;;;;;;;40.58;19.90;;;;;;;;;;4924373;29;20109;-87
2021/12/13 03:28:20;;;;;;;41.45;21.25;;;;;;;;;;4924260;29;20067;-87
2021/12/13 03:33:49;;;;;;;;;;;;;;;;;;4924817;29;20587;-88
2021/12/13 03:36:16;;;;;;;29.63;16.50;;;;;;;;;;4924169;29;20238;-87
2021/12/13 03:38:48;;;;;;;33.05;19.63;;;;;;;;;;4924022;29;20035;-87
2021/12/13 03:41:16;;;;;;;29.58;17.83;;;;;;;;;;4924223;29;20036;-86
2021/12/13 03:43:53;;;;;;;28.95;16.40;;;;;;;;;;4923908;29;20127;-86
2021/12/13 03:46:21;;;;;;;27.08;16.55;;;;;;;;;;4923814;29;20032;-86
2021/12/13 03:48:48;;;;;;;28.38;16.10;;;;;;;;;;4923880;29;20028;-89
2021/12/13 03:51:16;;;;;;;27.80;15.88;;;;;;;;;;4923761;29;20032;-89
2021/12/13 03:53:44;;;;;;;27.85;16.52;;;;;;;;;;4907502;29;20423;-88
2021/12/13 03:56:13;;;;;;;29.27;15.90;;;;;;;;;;4923675;29;20048;-88
2021/12/13 03:58:47;;;;;;;23.83;15.27;;;;;;;;;;4923810;29;20024;-88
2021/12/13 04:04:20;;;;;;;25.40;14.73;;;;;;;;;;4922974;29;20034;-87
2021/12/13 04:09:33;;;;;;;23.65;14.43;;;;;;;;;;4924044;29;20075;-87
2021/12/13 04:20:25;;;;;;;20.83;13.93;;;;;;;;;;4924178;29;20050;-87
2021/12/13 04:22:53;;;;;;;21.73;12.95;;;;;;;;;;4923438;29;20115;-88
2021/12/13 04:34:16;;;;;;;22.40;12.73;;;;;;;;;;4923555;29;20076;-88
2021/12/13 04:39:34;;;;;;;24.27;12.75;;;;;;;;;;4976586;23;20052;-88
2021/12/13 04:42:02;;;;;;;20.75;12.63;;;;;;;;;;4923144;29;20047;-88
2021/12/13 04:47:35;;;;;;;19.63;11.30;;;;;;;;;;4923237;29;20043;-87
2021/12/13 04:53:05;;;;;;;20.75;12.27;;;;;;;;;;4923199;29;20511;-87
2021/12/13 04:55:34;;;;;;;18.33;11.82;;;;;;;;;;4922537;29;20043;-87
2021/12/13 04:58:02;;;;;;;20.73;11.27;;;;;;;;;;4905891;29;20413;-87
2021/12/13 05:00:31;;;;;;;19.27;11.70;;;;;;;;;;4922836;29;20348;-87
2021/12/13 05:02:59;;;;;;;16.92;11.05;;;;;;;;;;4905763;29;20064;-88
2021/12/13 05:05:26;;;;;;;16.83;9.75;;;;;;;;;;4922282;29;20046;-88
2021/12/13 05:07:53;;;;;;;16.38;9.95;;;;;;;;;;4922524;29;20040;-89
2021/12/13 05:10:24;;;;;;;17.55;10.30;;;;;;;;;;4922585;29;20029;-88
2021/12/13 05:13:10;;;;;;;14.98;8.65;;;;;;;;;;4922588;29;20071;-87
2021/12/13 05:15:39;;;;;;;15.70;8.95;;;;;;;;;;4922053;29;20028;-87
2021/12/13 05:18:06;;;;;;;15.27;9.25;;;;;;;;;;4922544;29;20048;-87
2021/12/13 05:20:39;;;;;;;13.38;7.95;;;;;;;;;;4922592;29;20039;-87
2021/12/13 05:23:05;;;;;;;;;;;;;;;;;;4922722;29;20025;-87
2021/12/13 05:25:37;;;;;;;11.93;7.57;;;;;;;;;;4905607;29;20001;-88
2021/12/13 05:28:06;;;;;;;12.43;6.72;;;;;;;;;;4905433;29;20054;-88
2021/12/13 05:30:33;;;;;;;11.13;6.38;;;;;;;;;;4922257;29;20055;-88
2021/12/13 05:33:03;;;;;;;10.27;6.20;;;;;;;;;;4922385;29;20416;-88
2021/12/13 05:35:35;;;;;;;8.85;5.85;;;;;;;;;;4905270;29;20043;-88
2021/12/13 05:38:04;;;;;;;10.82;6.60;;;;;;;;;;4921963;29;20129;-88
2021/12/13 05:40:41;;;;;;;9.70;6.53;;;;;;;;;;4922038;29;20060;-88
2021/12/13 05:43:25;;;;;;;10.90;6.75;;;;;;;;;;4905171;29;20024;-87
2021/12/13 05:46:03;;;;;;;11.13;7.20;;;;;;;;;;4921987;29;20024;-87
2021/12/13 05:48:35;;;;;;;31.15;12.98;;;;;;;;;;4921960;29;20032;-87
2021/12/13 05:51:03;;;;;;;34.97;15.13;;;;;;;;;;4921771;29;20059;-90
2021/12/13 05:53:37;;;;;;;16.85;9.02;;;;;;;;;;4921842;29;20083;-89
2021/12/13 05:56:10;;;;;;;14.07;7.53;;;;;;;;;;4921895;29;20036;-89
2021/12/13 05:58:42;;;;;;;11.93;8.00;;;;;;;;;;4921802;29;20047;-89
2021/12/13 06:01:12;;;;;;;;;;;;;;;;;;4922389;29;20024;-88
2021/12/13 06:03:41;;;;;;;13.38;8.60;;;;;;;;;;4904886;29;19907;-89
2021/12/13 06:06:10;;;;;;;18.05;9.82;;;;;;;;;;4904994;29;20048;-90
2021/12/13 06:08:40;;;;;;;17.30;11.30;;;;;;;;;;4921670;29;20028;-88
2021/12/13 06:11:11;;;;;;;17.67;11.02;;;;;;;;;;4921746;29;20044;-88
2021/12/13 06:13:40;;;;;;;19.60;12.95;;;;;;;;;;4904794;29;20024;-87
2021/12/13 06:16:06;;;;;;;21.30;13.52;;;;;;;;;;4921372;29;20088;-88
2021/12/13 06:19:02;;;;;;;23.02;14.18;;;;;;;;;;4921385;29;20419;-88
2021/12/13 06:21:42;;;;;;;22.45;13.90;;;;;;;;;;4921425;29;20024;-88
2021/12/13 06:24:10;;;;;;;25.40;15.07;;;;;;;;;;4905047;29;20120;-88
2021/12/13 06:26:36;;;;;;;31.10;21.00;;;;;;;;;;4920743;29;20028;-88
2021/12/13 06:29:05;;;;;;;36.50;23.65;;;;;;;;;;4921251;29;20395;-88
2021/12/13 06:31:40;;;;;;;39.55;25.98;;;;;;;;;;4904612;29;20020;-89
2021/12/13 06:34:09;;;;;;;40.10;26.25;;;;;;;;;;4904643;29;20020;-88
2021/12/13 06:36:41;;;;;;;33.28;22.25;;;;;;;;;;4921270;29;20407;-88
2021/12/13 06:39:09;;;;;;;32.33;21.73;;;;;;;;;;4904426;29;20054;-89
2021/12/13 06:41:43;;;;;;;39.38;25.08;;;;;;;;;;4921416;29;20024;-88
2021/12/13 06:44:12;;;;;;;34.97;23.55;;;;;;;;;;4921182;29;20067;-88
2021/12/13 06:46:40;;;;;;;42.42;20.73;;;;;;;;;;4904320;29;20032;-89
2021/12/13 06:49:14;;;;;;;37.45;22.70;;;;;;;;;;4921301;29;20430;-90
2021/12/13 06:51:46;;;;;;;41.15;24.65;;;;;;;;;;4921172;29;20024;-89
2021/12/13 06:54:32;;;;;;;39.35;22.55;;;;;;;;;;4920997;29;20031;-88
2021/12/13 06:57:34;;;;;;;32.78;19.48;;;;;;;;;;4904444;29;20043;-89
2021/12/13 07:00:04;;;;;;;34.03;19.85;;;;;;;;;;4844980;29;20126;-90
2021/12/13 07:02:36;;;;;;;34.30;21.30;;;;;;;;;;4829780;29;20120;-88
2021/12/13 07:05:08;;;;;;;31.92;19.17;;;;;;;;;;4845031;29;20034;-90
2021/12/13 07:07:49;;;;;;;37.17;22.42;;;;;;;;;;4829563;29;20038;-90
2021/12/13 07:10:18;;;;;;;42.33;22.70;;;;;;;;;;4845167;29;20037;-89
2021/12/13 07:12:52;;;;;;;36.72;21.02;;;;;;;;;;4845121;29;20034;-90
2021/12/13 07:15:23;;;;;;;36.35;21.60;;;;;;;;;;4844846;29;20098;-89
2021/12/13 07:18:00;;;;;;;33.45;19.90;;;;;;;;;;4829506;29;20030;-89
2021/12/13 07:20:31;;;;;;;31.58;16.90;;;;;;;;;;4829495;29;20128;-89
2021/12/13 07:22:57;;;;;;;30.33;18.47;;;;;;;;;;4844523;29;20030;-89
2021/12/13 07:25:24;;;;;;;28.63;17.25;;;;;;;;;;4829436;29;20306;-89
2021/12/13 07:27:50;;;;;;;30.58;17.60;;;;;;;;;;4829325;29;20042;-90
2021/12/13 07:30:26;;;;;;;30.30;16.92;;;;;;;;;;4844564;29;20106;-90
2021/12/13 07:32:57;;;;;;;29.55;16.52;;;;;;;;;;4833531;29;20078;-90
2021/12/13 07:35:23;;;;;;;37.33;19.25;;;;;;;;;;4904089;29;20032;-88
2021/12/13 07:38:04;;;;;;;30.75;17.88;;;;;;;;;;4921649;29;20050;-88
2021/12/13 07:40:51;;;;;;;30.50;17.23;;;;;;;;;;4924406;29;20036;-88
2021/12/13 07:43:44;;;;;;;35.65;19.17;;;;;;;;;;4924154;29;20020;-87
2021/12/13 07:46:10;;;;;;;35.65;19.85;;;;;;;;;;4921035;29;20036;-88
2021/12/13 07:48:36;;;;;;;34.20;17.02;;;;;;;;;;4923862;29;20319;-88
2021/12/13 07:51:22;;;;;;;28.75;17.13;;;;;;;;;;4923935;29;20028;-86
2021/12/13 07:53:54;;;;;;;30.00;16.25;;;;;;;;;;4923846;29;20043;-87
2021/12/13 07:56:20;;;;;;;29.30;15.73;;;;;;;;;;4923927;29;20059;-90
2021/12/13 07:58:48;;;;;;;31.83;17.52;;;;;;;;;;4907232;29;20113;-88
2021/12/13 08:17:17;;;;;;;32.65;19.58;;;;;;;;;;5832689;23;9138608;-88
2021/12/13 08:19:44;;;;;;;35.17;19.75;;;;;;;;;;6229945;23;20034;-89
2021/12/13 08:22:12;;;;;;;35.17;20.02;;;;;;;;;;6229612;23;20412;-92
2021/12/13 08:24:46;;;;;;;32.72;18.95;;;;;;;;;;6229915;23;20004;-90
2021/12/13 08:27:16;;;;;;;35.47;19.85;;;;;;;;;;6230076;23;20062;-90
2021/12/13 08:29:43;;;;;;;28.58;15.25;;;;;;;;;;6230019;23;20028;-91
2021/12/13 08:32:15;;;;;;;30.42;16.55;;;;;;;;;;6203277;23;20000;-88
2021/12/13 08:34:44;;;;;;;31.33;17.60;;;;;;;;;;6229994;23;20075;-87
2021/12/13 08:37:17;;;;;;;33.10;17.38;;;;;;;;;;6202999;23;20004;-87
2021/12/13 08:39:43;;;;;;;35.80;18.65;;;;;;;;;;6229188;23;20005;-87
2021/12/13 08:42:18;;;;;;;31.10;17.50;;;;;;;;;;6202960;23;20008;-87
2021/12/13 08:44:46;;;;;;;33.42;18.42;;;;;;;;;;6229718;23;20000;-88
2021/12/13 08:47:17;;;;;;;31.88;16.83;;;;;;;;;;6202737;23;20008;-87
2021/12/13 08:49:46;;;;;;;28.17;15.20;;;;;;;;;;6229235;23;20001;-88
2021/12/13 08:52:22;;;;;;;24.88;14.85;;;;;;;;;;6229994;23;20008;-92
2021/12/13 08:55:06;;;;;;;29.95;15.38;;;;;;;;;;6229648;23;20008;-93
2021/12/13 08:57:54;;;;;;;27.52;15.63;;;;;;;;;;6229519;23;20000;-92
2021/12/13 09:00:20;;;;;;;28.92;16.02;;;;;;;;;;6232402;23;20266;-96
2021/12/13 09:05:59;;;;;;;33.42;18.02;;;;;;;;;;6229236;23;20130;-89
2021/12/13 09:08:28;;;;;;;31.00;17.33;;;;;;;;;;6202978;23;20046;-89
2021/12/13 09:10:58;;;;;;;31.75;18.25;;;;;;;;;;6229543;23;20000;-89
2021/12/13 09:13:40;;;;;;;29.08;17.75;;;;;;;;;;6227618;23;20020;-89
2021/12/13 09:16:07;;;;;;;32.10;18.38;;;;;;;;;;6222696;23;20017;-89
2021/12/13 09:18:33;;;;;;;39.92;22.30;;;;;;;;;;6196311;23;20009;-88
2021/12/13 09:20:59;;;;;;;32.03;18.27;;;;;;;;;;6195732;23;20004;-89
2021/12/13 09:23:30;;;;;;;28.05;16.50;;;;;;;;;;6222529;23;20001;-89
2021/12/13 09:26:06;;;;;;;30.33;16.13;;;;;;;;;;6195983;23;20032;-89
2021/12/13 09:28:37;;;;;;;31.75;17.77;;;;;;;;;;6222399;23;20003;-89
2021/12/13 09:31:08;;;;;;;65.78;29.42;;;;;;;;;;6196152;23;20051;-88
2021/12/13 09:33:36;;;;;;;32.25;18.33;;;;;;;;;;6196004;23;20008;-89
2021/12/13 09:36:13;;;;;;;31.48;18.63;;;;;;;;;;6222601;23;20004;-88
2021/12/13 09:38:44;;;;;;;41.63;21.13;;;;;;;;;;6222794;23;20020;-90
2021/12/13 09:41:10;;;;;;;31.75;18.98;;;;;;;;;;6222693;23;20009;-89
2021/12/13 09:43:39;;;;;;;30.88;19.92;;;;;;;;;;6222612;23;20010;-89
2021/12/13 09:46:05;;;;;;;37.92;22.65;;;;;;;;;;6222453;23;20080;-89
2021/12/13 09:48:34;;;;;;;29.67;18.95;;;;;;;;;;6194939;23;20012;-89
2021/12/13 09:51:03;;;;;;;34.53;19.45;;;;;;;;;;6222319;23;20012;-88
2021/12/13 09:53:32;;;;;;;35.50;20.17;;;;;;;;;;6195734;23;20013;-89
2021/12/13 09:56:00;;;;;;;60.00;32.50;;;;;;;;;;6221907;23;20368;-89
2021/12/13 09:58:37;;;;;;;47.63;28.23;;;;;;;;;;6222447;23;20015;-89
2021/12/13 10:01:03;;;;;;;33.58;18.25;;;;;;;;;;6222322;23;20016;-89
2021/12/13 10:03:34;;;;;;;35.90;19.83;;;;;;;;;;6222043;23;20250;-89
2021/12/13 10:06:03;;;;;;;36.13;20.88;;;;;;;;;;6221776;23;20000;-89
2021/12/13 10:08:50;;;;;;;26.92;16.77;;;;;;;;;;6195198;23;20075;-88
2021/12/13 10:11:28;;;;;;;37.55;21.88;;;;;;;;;;6221924;23;20000;-88
2021/12/13 10:13:54;;;;;;;56.08;33.63;;;;;;;;;;6195627;23;20316;-89
2021/12/13 10:16:23;;;;;;;37.97;23.20;;;;;;;;;;6221875;23;20031;-88
2021/12/13 10:18:51;;;;;;;44.00;26.02;;;;;;;;;;6221838;23;20021;-89
2021/12/13 10:21:20;;;;;;;34.28;20.40;;;;;;;;;;6195140;23;20047;-88
2021/12/13 10:23:49;;;;;;;41.65;26.50;;;;;;;;;;6221671;23;20318;-89
2021/12/13 10:26:16;;;;;;;38.45;24.60;;;;;;;;;;6221853;23;20000;-90
2021/12/13 10:28:54;;;;;;;40.38;23.27;;;;;;;;;;6221740;23;20123;-89
2021/12/13 10:31:23;;;;;;;39.70;23.25;;;;;;;;;;6222085;23;20004;-90
2021/12/13 10:33:49;;;;;;;39.40;22.73;;;;;;;;;;6221969;23;20064;-88
2021/12/13 10:36:16;;;;;;;33.60;19.77;;;;;;;;;;6221561;23;20005;-88
2021/12/13 10:38:45;;;;;;;31.48;19.30;;;;;;;;;;6222059;23;20068;-87
2021/12/13 10:41:16;;;;;;;38.00;22.00;;;;;;;;;;6195331;23;20008;-87
2021/12/13 10:43:45;;;;;;;33.08;18.70;;;;;;;;;;6221825;23;20359;-88
2021/12/13 10:46:13;;;;;;;30.92;19.15;;;;;;;;;;6195343;23;20013;-88
2021/12/13 10:48:45;;;;;;;36.03;20.30;;;;;;;;;;6221722;23;20366;-89
2021/12/13 10:51:19;;;;;;;34.65;20.65;;;;;;;;;;6195262;23;20008;-89
2021/12/13 10:53:46;;;;;;;41.72;25.08;;;;;;;;;;6195217;23;20012;-88
2021/12/13 10:56:14;;;;;;;42.20;25.38;;;;;;;;;;6221444;23;20004;-88
2021/12/13 10:58:43;;;;;;;51.38;28.73;;;;;;;;;;6221779;23;20005;-88
2021/12/13 11:01:19;;;;;;;60.58;38.53;;;;;;;;;;6221726;23;20004;-89
2021/12/13 11:03:46;;;;;;;53.75;32.45;;;;;;;;;;6221577;23;20061;-89
2021/12/13 11:06:14;;;;;;;59.28;33.97;;;;;;;;;;6221302;23;20003;-88
2021/12/13 11:08:43;;;;;;;81.60;41.55;;;;;;;;;;6195193;23;20000;-89
2021/12/13 11:11:15;;;;;;;64.03;36.10;;;;;;;;;;6220876;23;20008;-88
2021/12/13 11:13:41;;;;;;;43.92;27.48;;;;;;;;;;6193957;23;20374;-88
2021/12/13 11:16:10;;;;;;;47.30;30.25;;;;;;;;;;6221196;23;20271;-88
2021/12/13 11:18:37;;;;;;;51.35;32.75;;;;;;;;;;6194887;23;20062;-88
2021/12/13 11:21:14;;;;;;;45.65;27.02;;;;;;;;;;6221422;23;20011;-88
2021/12/13 11:23:40;;;;;;;60.22;33.13;;;;;;;;;;6194163;23;20371;-89
2021/12/13 11:26:08;;;;;;;56.58;32.22;;;;;;;;;;6221324;23;20007;-88
2021/12/13 11:28:35;;;;;;;58.08;32.50;;;;;;;;;;6221524;23;20255;-88
2021/12/13 11:31:08;;;;;;;45.22;26.70;;;;;;;;;;6221459;23;20034;-88
2021/12/13 11:33:42;;;;;;;55.17;33.10;;;;;;;;;;6221623;23;20341;-88
2021/12/13 11:36:08;;;;;;;62.72;36.53;;;;;;;;;;6220979;23;20015;-88
2021/12/13 11:39:13;;;;;;;74.63;38.92;;;;;;;;;;6194748;23;20005;-88
2021/12/13 11:41:55;;;;;;;62.15;31.52;;;;;;;;;;6129583;23;20031;-88
2021/12/13 11:44:27;;;;;;;64.10;35.20;;;;;;;;;;6129627;23;19998;-87
2021/12/13 11:46:56;;;;;;;66.22;35.15;;;;;;;;;;6105154;23;20010;-87
2021/12/13 11:49:25;;;;;;;67.97;35.95;;;;;;;;;;6105409;23;20384;-88
2021/12/13 11:52:09;;;;;;;65.47;32.42;;;;;;;;;;6129519;23;20007;-87
2021/12/13 11:54:54;;;;;;;51.35;30.90;;;;;;;;;;6105308;23;20361;-87
2021/12/13 11:57:39;;;;;;;57.95;34.20;;;;;;;;;;6129700;23;20013;-88
2021/12/13 12:00:20;;;;;;;55.80;34.08;;;;;;;;;;6129758;23;20069;-87
2021/12/13 12:03:08;;;;;;;48.60;31.33;;;;;;;;;;6129436;23;20005;-88
2021/12/13 12:06:06;;;;;;;41.80;25.17;;;;;;;;;;6129613;23;20006;-87
2021/12/13 12:08:44;;;;;;;46.00;25.58;;;;;;;;;;6071366;23;20034;-87
2021/12/13 12:11:19;;;;;;;40.47;24.52;;;;;;;;;;6071341;23;20119;-88
2021/12/13 12:14:06;;;;;;;42.67;24.05;;;;;;;;;;6129603;23;20216;-88
2021/12/13 12:16:43;;;;;;;34.63;20.50;;;;;;;;;;6081827;23;20030;-87
2021/12/13 12:19:13;;;;;;;38.55;21.67;;;;;;;;;;6129593;23;20002;-87
2021/12/13 12:21:46;;;;;;;34.40;21.90;;;;;;;;;;6129481;23;20013;-88
2021/12/13 12:24:14;;;;;;;38.03;23.40;;;;;;;;;;6129569;23;20309;-87
2021/12/13 12:26:41;;;;;;;40.70;22.95;;;;;;;;;;6129473;23;20006;-88
2021/12/13 12:29:09;;;;;;;32.78;20.75;;;;;;;;;;6129548;23;20077;-87
2021/12/13 12:31:37;;;;;;;37.83;22.90;;;;;;;;;;6104975;23;20034;-87
2021/12/13 12:34:04;;;;;;;39.15;21.83;;;;;;;;;;6105544;23;20012;-89
2021/12/13 12:36:42;;;;;;;40.75;24.50;;;;;;;;;;6104956;23;20002;-87
2021/12/13 12:39:27;;;;;;;39.97;24.15;;;;;;;;;;6104695;23;20006;-87
2021/12/13 12:42:01;;;;;;;41.53;25.38;;;;;;;;;;6129450;23;20073;-88
2021/12/13 12:44:30;;;;;;;43.47;26.30;;;;;;;;;;6189092;23;20014;-88
2021/12/13 12:46:58;;;;;;;48.85;29.05;;;;;;;;;;6220609;23;20009;-87
2021/12/13 12:49:25;;;;;;;48.63;29.63;;;;;;;;;;6221594;23;20001;-88
2021/12/13 12:51:52;;;;;;;48.88;29.85;;;;;;;;;;6222679;23;20012;-87
2021/12/13 12:54:19;;;;;;;48.97;28.58;;;;;;;;;;6222759;23;20005;-87
2021/12/13 12:56:48;;;;;;;51.00;29.17;;;;;;;;;;6196325;23;20005;-88
2021/12/13 12:59:14;;;;;;;51.88;30.13;;;;;;;;;;6222421;23;20056;-87
2021/12/13 13:01:45;;;;;;;57.85;31.38;;;;;;;;;;6222614;23;20000;-88
2021/12/13 13:04:17;;;;;;;64.85;35.35;;;;;;;;;;6222636;23;20001;-88
2021/12/13 13:06:50;;;;;;;64.47;36.88;;;;;;;;;;6195847;23;20095;-87
2021/12/13 13:09:16;;;;;;;65.68;37.40;;;;;;;;;;6222891;23;19996;-88
2021/12/13 13:11:45;;;;;;;65.55;34.78;;;;;;;;;;6222260;23;20386;-88
2021/12/13 13:14:13;;;;;;;56.00;33.17;;;;;;;;;;6196272;23;20012;-87
2021/12/13 13:16:42;;;;;;;68.32;38.78;;;;;;;;;;6195299;23;20021;-88
2021/12/13 13:19:09;;;;;;;74.45;37.70;;;;;;;;;;6196170;23;20028;-88
2021/12/13 13:21:43;;;;;;;66.78;35.50;;;;;;;;;;6222857;23;20060;-87
2021/12/13 13:24:09;;;;;;;134.13;53.97;;;;;;;;;;6222658;23;20024;-88
2021/12/13 13:26:35;;;;;;;118.25;52.58;;;;;;;;;;6222629;23;19996;-87
2021/12/13 13:29:06;;;;;;;69.00;40.03;;;;;;;;;;6222481;23;19997;-88
2021/12/13 13:31:38;;;;;;;62.72;36.58;;;;;;;;;;6196066;23;20000;-87
2021/12/13 13:34:06;;;;;;;71.15;37.50;;;;;;;;;;6222576;23;20001;-87
2021/12/13 13:36:47;;;;;;;65.43;36.80;;;;;;;;;;6222267;23;19997;-87
2021/12/13 13:39:33;;;;;;;94.68;49.65;;;;;;;;;;6222035;23;20036;-88
2021/12/13 13:42:19;;;;;;;86.18;47.42;;;;;;;;;;6195945;23;20262;-87
2021/12/13 13:44:50;;;;;;;87.05;46.30;;;;;;;;;;6222254;23;20032;-87
2021/12/13 13:47:21;;;;;;;81.10;41.60;;;;;;;;;;6196212;23;20013;-87
2021/12/13 13:49:47;;;;;;;65.97;38.70;;;;;;;;;;6222437;23;20020;-87
2021/12/13 13:52:17;;;;;;;67.13;39.67;;;;;;;;;;6222709;23;19997;-87
2021/12/13 13:54:44;;;;;;;73.30;41.63;;;;;;;;;;6222279;23;20004;-88
2021/12/13 13:57:15;;;;;;;71.30;43.25;;;;;;;;;;6222145;23;19997;-87
2021/12/13 13:59:42;;;;;;;86.60;46.00;;;;;;;;;;6195735;23;20009;-87
2021/12/13 14:02:10;;;;;;;94.13;46.58;;;;;;;;;;6195511;23;20015;-87
2021/12/13 14:04:41;;;;;;;84.88;43.63;;;;;;;;;;6195543;23;19993;-87
2021/12/13 14:07:27;;;;;;;84.22;44.05;;;;;;;;;;6222382;23;20080;-87
2021/12/13 14:10:08;;;;;;;127.22;58.22;;;;;;;;;;6222323;23;20001;-87
2021/12/13 14:12:34;;;;;;;130.63;63.83;;;;;;;;;;6221874;23;20011;-86
2021/12/13 14:15:06;;;;;;;134.07;70.15;;;;;;;;;;6222097;23;20004;-87
2021/12/13 14:17:41;;;;;;;130.50;66.35;;;;;;;;;;6221313;23;20031;-87
2021/12/13 14:20:26;;;;;;;117.18;64.05;;;;;;;;;;6195025;23;20009;-86
2021/12/13 14:22:54;;;;;;;151.65;74.60;;;;;;;;;;6221418;23;20001;-86
2021/12/13 14:25:28;;;;;;;170.27;75.47;;;;;;;;;;6221103;23;20008;-87
2021/12/13 14:27:54;;;;;;;168.13;76.03;;;;;;;;;;6194916;23;20047;-86
2021/12/13 14:30:23;;;;;;;144.38;72.68;;;;;;;;;;6222028;23;19997;-86
2021/12/13 14:32:49;;;;;;;118.32;61.80;;;;;;;;;;6194810;23;20028;-87
2021/12/13 14:35:17;;;;;;;113.05;59.15;;;;;;;;;;6195373;23;20008;-87
2021/12/13 14:37:44;;;;;;;115.45;61.15;;;;;;;;;;6221956;23;20067;-86
2021/12/13 14:40:10;;;;;;;101.47;55.70;;;;;;;;;;6221355;23;20000;-87
2021/12/13 14:42:37;;;;;;;140.95;69.30;;;;;;;;;;6221106;23;20273;-86
2021/12/13 14:45:06;;;;;;;118.82;69.45;;;;;;;;;;6195324;23;20028;-87
2021/12/13 14:47:32;;;;;;;115.93;66.78;;;;;;;;;;6195092;23;20021;-87
2021/12/13 14:50:00;;;;;;;90.07;50.33;;;;;;;;;;6194775;23;20008;-86
2021/12/13 14:52:30;;;;;;;87.38;47.92;;;;;;;;;;6221549;23;20000;-87
2021/12/13 14:54:59;;;;;;;97.10;52.45;;;;;;;;;;6221720;23;20012;-88
2021/12/13 14:57:28;;;;;;;108.28;57.67;;;;;;;;;;6221385;23;20363;-88
2021/12/13 14:59:57;;;;;;;95.38;54.53;;;;;;;;;;6221863;23;20005;-88
2021/12/13 15:02:26;;;;;;;86.95;50.00;;;;;;;;;;6194575;23;20095;-88
2021/12/13 15:04:53;;;;;;;76.22;45.60;;;;;;;;;;6195102;23;20055;-87
2021/12/13 15:07:21;;;;;;;75.97;45.28;;;;;;;;;;6221285;23;20007;-88
2021/12/13 15:09:52;;;;;;;68.72;42.30;;;;;;;;;;6221719;23;20000;-87
2021/12/13 15:12:21;;;;;;;71.50;42.15;;;;;;;;;;6195068;23;20009;-88
2021/12/13 15:14:49;;;;;;;73.65;43.10;;;;;;;;;;6221524;23;20024;-89
2021/12/13 15:17:17;;;;;;;74.35;44.80;;;;;;;;;;6220482;23;20020;-88
2021/12/13 15:19:43;;;;;;;79.70;46.80;;;;;;;;;;6195133;23;20015;-88
2021/12/13 15:22:09;;;;;;;77.72;48.55;;;;;;;;;;6221363;23;20020;-89
2021/12/13 15:24:36;;;;;;;81.82;45.42;;;;;;;;;;6221041;23;20001;-88
2021/12/13 15:27:11;;;;;;;93.05;51.13;;;;;;;;;;6221423;23;20067;-89
2021/12/13 15:29:38;;;;;;;86.10;48.47;;;;;;;;;;6170602;23;20012;-89
2021/12/13 15:32:16;;;;;;;89.90;48.88;;;;;;;;;;6221615;23;20004;-88
2021/12/13 15:34:52;;;;;;;102.65;50.35;;;;;;;;;;6221529;23;20363;-90
2021/12/13 15:37:26;;;;;;;76.13;40.97;;;;;;;;;;6221582;23;20000;-88
2021/12/13 15:40:19;;;;;;;73.97;40.58;;;;;;;;;;6221551;23;20024;-89
2021/12/13 15:42:53;;;;;;;60.33;34.90;;;;;;;;;;6216965;23;20012;-88
2021/12/13 15:45:33;;;;;;;75.40;41.80;;;;;;;;;;6221401;23;20072;-90
2021/12/13 15:50:44;;;;;;;85.38;48.30;;;;;;;;;;6220952;23;20043;-87
2021/12/13 15:53:11;;;;;;;95.95;51.05;;;;;;;;;;6221407;23;20001;-89
2021/12/13 15:55:40;;;;;;;100.70;52.38;;;;;;;;;;6221112;23;20477;-90
2021/12/13 15:58:12;;;;;;;148.85;74.30;;;;;;;;;;6194420;23;20060;-91
2021/12/13 16:00:38;;;;;;;103.30;57.00;;;;;;;;;;6220893;23;20008;-90
2021/12/13 16:03:05;;;;;;;122.35;62.78;;;;;;;;;;6221088;23;20001;-89